Baotou, China
Current Conditions -  °F | °C
As of 1:00 AM on Friday 24 Oct 2014 (Local Time) from ZBHH Reporting Station
Clear Clear  
Wind Chill: 38°   Ceiling: Unl
Heat Index: 41°   Visibility: 5mi
Dew Point: 32°   Wind: 4mph
Humidity: 70%   Direction: 80°E
Pressure: 29.91"   Gusts: NA
Location:  40.4°N, 109.59°E
Report Text: ZBHH 231700Z 08002MPS 8000 NSC 05/00 Q1013 NOSIG
Loading
Personal Weather Stations






























Interactive Weather Map
Tropical Storm Tracking
New forecast layout! Learn more

10-Day Weather Forecast

Advertisements
Track Severe Weather on mobile